sensor_id;sensor_type;location;lat;lon;timestamp;pressure;altitude;pressure_sealevel;temperature;humidity
46944;BME280;32678;43.852;25.952;2023-05-31T00:04:00;101099.25;;;21.21;73.62
46944;BME280;32678;43.852;25.952;2023-05-31T00:08:57;101102.81;;;20.96;74.35
46944;BME280;32678;43.852;25.952;2023-05-31T00:13:54;101104.81;;;21.05;74.78
46944;BME280;32678;43.852;25.952;2023-05-31T00:18:51;101106.16;;;21.36;73.13
46944;BME280;32678;43.852;25.952;2023-05-31T00:23:48;101115.91;;;21.61;72.70
46944;BME280;32678;43.852;25.952;2023-05-31T00:28:44;101108.13;;;21.82;72.06
46944;BME280;32678;43.852;25.952;2023-05-31T00:33:43;101117.44;;;21.76;72.26
46944;BME280;32678;43.852;25.952;2023-05-31T00:38:40;101118.41;;;21.75;71.62
46944;BME280;32678;43.852;25.952;2023-05-31T00:43:36;101116.50;;;21.77;71.28
46944;BME280;32678;43.852;25.952;2023-05-31T00:48:33;101111.09;;;21.66;72.15
46944;BME280;32678;43.852;25.952;2023-05-31T00:53:31;101117.03;;;22.06;71.67
46944;BME280;32678;43.852;25.952;2023-05-31T00:58:27;101110.41;;;22.23;70.27
46944;BME280;32678;43.852;25.952;2023-05-31T01:03:25;101122.09;;;21.85;71.50
46944;BME280;32678;43.852;25.952;2023-05-31T01:08:22;101134.22;;;22.26;70.68
46944;BME280;32678;43.852;25.952;2023-05-31T01:13:20;101130.13;;;22.09;70.34
46944;BME280;32678;43.852;25.952;2023-05-31T01:18:20;101129.53;;;22.06;71.42
46944;BME280;32678;43.852;25.952;2023-05-31T01:23:32;101141.97;;;22.18;70.37
46944;BME280;32678;43.852;25.952;2023-05-31T01:28:35;101137.41;;;21.83;72.00
46944;BME280;32678;43.852;25.952;2023-05-31T01:33:33;101136.44;;;21.84;71.66
46944;BME280;32678;43.852;25.952;2023-05-31T01:38:30;101136.72;;;21.20;74.43
46944;BME280;32678;43.852;25.952;2023-05-31T01:43:27;101142.81;;;21.58;73.72
46944;BME280;32678;43.852;25.952;2023-05-31T01:48:25;101147.13;;;21.84;72.01
46944;BME280;32678;43.852;25.952;2023-05-31T01:53:22;101150.28;;;21.89;70.63
46944;BME280;32678;43.852;25.952;2023-05-31T01:58:19;101145.38;;;21.59;72.57
46944;BME280;32678;43.852;25.952;2023-05-31T02:03:17;101147.38;;;21.69;71.70
46944;BME280;32678;43.852;25.952;2023-05-31T02:08:15;101151.59;;;21.47;72.55
46944;BME280;32678;43.852;25.952;2023-05-31T02:13:12;101149.59;;;21.38;73.38
46944;BME280;32678;43.852;25.952;2023-05-31T02:18:09;101149.06;;;20.83;75.01
46944;BME280;32678;43.852;25.952;2023-05-31T02:23:05;101151.44;;;20.62;76.30
46944;BME280;32678;43.852;25.952;2023-05-31T02:28:03;101146.44;;;20.04;77.81
46944;BME280;32678;43.852;25.952;2023-05-31T02:33:00;101153.78;;;19.73;80.54
46944;BME280;32678;43.852;25.952;2023-05-31T02:37:56;101159.53;;;19.80;80.78
46944;BME280;32678;43.852;25.952;2023-05-31T02:42:53;101154.16;;;20.08;79.94
46944;BME280;32678;43.852;25.952;2023-05-31T02:47:50;101157.38;;;19.99;80.44
46944;BME280;32678;43.852;25.952;2023-05-31T02:52:47;101166.34;;;19.98;80.62
46944;BME280;32678;43.852;25.952;2023-05-31T02:58:04;101165.00;;;20.32;79.33
46944;BME280;32678;43.852;25.952;2023-05-31T03:03:05;101178.88;;;20.37;78.40
46944;BME280;32678;43.852;25.952;2023-05-31T03:08:11;101179.88;;;20.61;76.91
46944;BME280;32678;43.852;25.952;2023-05-31T03:13:09;101185.53;;;20.69;76.71
46944;BME280;32678;43.852;25.952;2023-05-31T03:18:07;101193.19;;;20.61;75.52
46944;BME280;32678;43.852;25.952;2023-05-31T03:23:07;101191.56;;;20.46;75.60
46944;BME280;32678;43.852;25.952;2023-05-31T03:28:05;101202.97;;;20.21;76.94
46944;BME280;32678;43.852;25.952;2023-05-31T03:33:04;101196.91;;;20.05;78.39
46944;BME280;32678;43.852;25.952;2023-05-31T03:38:02;101209.88;;;20.24;77.78
46944;BME280;32678;43.852;25.952;2023-05-31T03:43:00;101212.41;;;20.40;78.05
46944;BME280;32678;43.852;25.952;2023-05-31T03:47:57;101215.78;;;20.56;77.36
46944;BME280;32678;43.852;25.952;2023-05-31T03:52:54;101220.63;;;20.76;77.18
46944;BME280;32678;43.852;25.952;2023-05-31T03:57:54;101215.06;;;20.79;76.14
46944;BME280;32678;43.852;25.952;2023-05-31T04:02:51;101227.97;;;20.98;76.42
46944;BME280;32678;43.852;25.952;2023-05-31T04:08:02;101226.53;;;21.19;75.16
46944;BME280;32678;43.852;25.952;2023-05-31T04:13:01;101222.59;;;21.25;74.35
46944;BME280;32678;43.852;25.952;2023-05-31T04:17:59;101225.56;;;21.33;74.64
46944;BME280;32678;43.852;25.952;2023-05-31T04:22:57;101230.44;;;21.64;73.86
46944;BME280;32678;43.852;25.952;2023-05-31T04:27:54;101236.16;;;21.83;72.52
46944;BME280;32678;43.852;25.952;2023-05-31T04:32:52;101237.22;;;21.81;71.97
46944;BME280;32678;43.852;25.952;2023-05-31T04:37:53;101241.94;;;21.77;72.08
46944;BME280;32678;43.852;25.952;2023-05-31T04:42:51;101238.72;;;21.97;71.79
46944;BME280;32678;43.852;25.952;2023-05-31T04:47:55;101246.81;;;22.32;71.09
46944;BME280;32678;43.852;25.952;2023-05-31T04:52:53;101246.44;;;22.61;70.17
46944;BME280;32678;43.852;25.952;2023-05-31T04:57:52;101245.00;;;22.68;68.80
46944;BME280;32678;43.852;25.952;2023-05-31T05:02:49;101271.44;;;22.72;68.52
46944;BME280;32678;43.852;25.952;2023-05-31T05:07:47;101280.44;;;22.71;69.48
46944;BME280;32678;43.852;25.952;2023-05-31T05:12:44;101291.28;;;22.81;69.97
46944;BME280;32678;43.852;25.952;2023-05-31T05:17:41;101293.19;;;22.79;70.77
46944;BME280;32678;43.852;25.952;2023-05-31T05:22:37;101297.69;;;22.78;71.33
46944;BME280;32678;43.852;25.952;2023-05-31T05:27:38;101306.00;;;22.86;70.79
46944;BME280;32678;43.852;25.952;2023-05-31T05:32:35;101307.94;;;22.84;70.91
46944;BME280;32678;43.852;25.952;2023-05-31T05:37:32;101303.13;;;23.01;69.95
46944;BME280;32678;43.852;25.952;2023-05-31T05:42:29;101304.41;;;23.19;68.52
46944;BME280;32678;43.852;25.952;2023-05-31T05:47:28;101296.88;;;22.89;67.46
46944;BME280;32678;43.852;25.952;2023-05-31T05:52:26;101303.03;;;22.55;69.21
46944;BME280;32678;43.852;25.952;2023-05-31T05:57:22;101307.41;;;22.56;69.36
46944;BME280;32678;43.852;25.952;2023-05-31T06:02:26;101305.41;;;22.46;70.38
46944;BME280;32678;43.852;25.952;2023-05-31T06:07:25;101306.06;;;22.14;71.42
46944;BME280;32678;43.852;25.952;2023-05-31T06:12:22;101308.78;;;22.61;72.03
46944;BME280;32678;43.852;25.952;2023-05-31T06:17:21;101297.28;;;23.07;70.56
46944;BME280;32678;43.852;25.952;2023-05-31T06:22:18;101306.16;;;23.07;68.84
46944;BME280;32678;43.852;25.952;2023-05-31T06:27:16;101305.34;;;22.83;70.04
46944;BME280;32678;43.852;25.952;2023-05-31T06:32:17;101311.72;;;22.93;68.89
46944;BME280;32678;43.852;25.952;2023-05-31T06:37:26;101310.50;;;23.43;68.04
46944;BME280;32678;43.852;25.952;2023-05-31T06:42:25;101313.50;;;23.73;67.23
46944;BME280;32678;43.852;25.952;2023-05-31T06:47:26;101311.28;;;23.90;66.38
46944;BME280;32678;43.852;25.952;2023-05-31T06:52:41;101315.44;;;23.94;66.04
46944;BME280;32678;43.852;25.952;2023-05-31T06:57:58;101323.81;;;24.11;64.88
46944;BME280;32678;43.852;25.952;2023-05-31T07:02:55;101314.56;;;24.15;64.69
46944;BME280;32678;43.852;25.952;2023-05-31T07:07:53;101304.47;;;23.97;61.79
46944;BME280;32678;43.852;25.952;2023-05-31T07:12:50;101310.81;;;24.07;61.63
46944;BME280;32678;43.852;25.952;2023-05-31T07:17:48;101313.75;;;23.82;59.62
46944;BME280;32678;43.852;25.952;2023-05-31T07:22:45;101311.19;;;23.69;57.98
46944;BME280;32678;43.852;25.952;2023-05-31T07:27:42;101312.00;;;23.47;57.50
46944;BME280;32678;43.852;25.952;2023-05-31T07:32:38;101316.69;;;23.32;56.32
46944;BME280;32678;43.852;25.952;2023-05-31T07:37:38;101320.09;;;23.69;55.90
46944;BME280;32678;43.852;25.952;2023-05-31T07:42:36;101323.22;;;24.08;53.31
46944;BME280;32678;43.852;25.952;2023-05-31T07:47:34;101318.72;;;23.97;50.75
46944;BME280;32678;43.852;25.952;2023-05-31T07:52:34;101312.88;;;23.81;52.54
46944;BME280;32678;43.852;25.952;2023-05-31T07:57:32;101303.69;;;24.39;50.58
46944;BME280;32678;43.852;25.952;2023-05-31T08:02:28;101302.22;;;24.46;49.30
46944;BME280;32678;43.852;25.952;2023-05-31T08:07:25;101297.16;;;24.32;48.47
46944;BME280;32678;43.852;25.952;2023-05-31T08:12:22;101311.03;;;24.37;48.07
46944;BME280;32678;43.852;25.952;2023-05-31T08:17:24;101306.53;;;24.15;48.65
46944;BME280;32678;43.852;25.952;2023-05-31T08:22:21;101308.00;;;24.08;48.71
46944;BME280;32678;43.852;25.952;2023-05-31T08:27:18;101294.25;;;24.02;49.31
46944;BME280;32678;43.852;25.952;2023-05-31T08:32:14;101308.25;;;24.05;50.27
46944;BME280;32678;43.852;25.952;2023-05-31T08:37:12;101305.66;;;24.15;49.01
46944;BME280;32678;43.852;25.952;2023-05-31T08:42:12;101286.66;;;24.29;47.05
46944;BME280;32678;43.852;25.952;2023-05-31T08:47:12;101314.00;;;24.55;45.61
46944;BME280;32678;43.852;25.952;2023-05-31T08:52:12;101316.00;;;24.53;45.11
46944;BME280;32678;43.852;25.952;2023-05-31T08:57:11;101310.09;;;24.59;44.77
46944;BME280;32678;43.852;25.952;2023-05-31T09:02:08;101303.38;;;24.65;45.21
46944;BME280;32678;43.852;25.952;2023-05-31T09:07:07;101306.41;;;24.71;46.24
46944;BME280;32678;43.852;25.952;2023-05-31T09:12:05;101304.97;;;24.67;45.22
46944;BME280;32678;43.852;25.952;2023-05-31T09:17:02;101298.91;;;24.97;45.31
46944;BME280;32678;43.852;25.952;2023-05-31T09:22:01;101304.97;;;24.99;43.36
46944;BME280;32678;43.852;25.952;2023-05-31T09:27:00;101296.78;;;25.00;42.25
46944;BME280;32678;43.852;25.952;2023-05-31T09:32:07;101300.06;;;25.25;39.63
46944;BME280;32678;43.852;25.952;2023-05-31T09:37:04;101298.88;;;25.38;38.05
46944;BME280;32678;43.852;25.952;2023-05-31T09:42:02;101293.34;;;25.30;39.62
46944;BME280;32678;43.852;25.952;2023-05-31T09:47:08;101287.84;;;25.41;40.18
46944;BME280;32678;43.852;25.952;2023-05-31T09:52:05;101287.50;;;25.46;39.91
46944;BME280;32678;43.852;25.952;2023-05-31T09:57:08;101275.41;;;25.61;41.49
46944;BME280;32678;43.852;25.952;2023-05-31T10:02:09;101277.66;;;25.96;39.96
46944;BME280;32678;43.852;25.952;2023-05-31T10:07:08;101270.94;;;26.21;38.92
46944;BME280;32678;43.852;25.952;2023-05-31T10:12:05;101279.81;;;26.52;36.54
46944;BME280;32678;43.852;25.952;2023-05-31T10:17:04;101266.34;;;26.81;37.92
46944;BME280;32678;43.852;25.952;2023-05-31T10:22:02;101260.25;;;26.79;36.60
46944;BME280;32678;43.852;25.952;2023-05-31T10:27:03;101256.91;;;26.86;37.69
46944;BME280;32678;43.852;25.952;2023-05-31T10:32:05;101244.84;;;26.71;37.70
46944;BME280;32678;43.852;25.952;2023-05-31T10:37:04;101241.00;;;26.64;36.26
46944;BME280;32678;43.852;25.952;2023-05-31T10:42:03;101238.91;;;26.39;36.67
46944;BME280;32678;43.852;25.952;2023-05-31T10:47:03;101231.94;;;26.26;35.03
46944;BME280;32678;43.852;25.952;2023-05-31T10:52:06;101229.75;;;26.11;35.19
46944;BME280;32678;43.852;25.952;2023-05-31T10:57:05;101222.59;;;26.30;34.75
46944;BME280;32678;43.852;25.952;2023-05-31T11:02:03;101219.47;;;26.25;32.92
46944;BME280;32678;43.852;25.952;2023-05-31T11:07:12;101203.34;;;26.25;34.46
46944;BME280;32678;43.852;25.952;2023-05-31T11:12:11;101223.03;;;26.26;34.03
46944;BME280;32678;43.852;25.952;2023-05-31T11:17:17;101221.50;;;26.33;33.64
46944;BME280;32678;43.852;25.952;2023-05-31T11:22:16;101215.53;;;26.68;32.25
46944;BME280;32678;43.852;25.952;2023-05-31T11:27:14;101217.59;;;27.12;33.17
46944;BME280;32678;43.852;25.952;2023-05-31T11:32:14;101209.72;;;27.38;31.99
46944;BME280;32678;43.852;25.952;2023-05-31T11:37:11;101200.38;;;26.77;32.21
46944;BME280;32678;43.852;25.952;2023-05-31T11:42:09;101200.09;;;26.70;32.99
46944;BME280;32678;43.852;25.952;2023-05-31T11:47:07;101196.53;;;26.89;33.43
46944;BME280;32678;43.852;25.952;2023-05-31T11:52:06;101191.34;;;27.24;33.27
46944;BME280;32678;43.852;25.952;2023-05-31T11:57:03;101189.50;;;27.62;33.70
46944;BME280;32678;43.852;25.952;2023-05-31T12:02:02;101163.63;;;27.14;33.67
46944;BME280;32678;43.852;25.952;2023-05-31T12:06:59;101177.03;;;26.87;35.75
46944;BME280;32678;43.852;25.952;2023-05-31T12:11:55;101172.78;;;26.65;34.33
46944;BME280;32678;43.852;25.952;2023-05-31T12:16:55;101171.91;;;26.64;32.83
46944;BME280;32678;43.852;25.952;2023-05-31T12:21:53;101177.16;;;26.66;31.95
46944;BME280;32678;43.852;25.952;2023-05-31T12:26:50;101170.50;;;26.70;32.49
46944;BME280;32678;43.852;25.952;2023-05-31T12:31:47;101164.97;;;26.91;33.60
46944;BME280;32678;43.852;25.952;2023-05-31T12:36:44;101168.25;;;27.31;32.48
46944;BME280;32678;43.852;25.952;2023-05-31T12:41:42;101161.38;;;27.37;31.95
46944;BME280;32678;43.852;25.952;2023-05-31T12:46:40;101161.06;;;27.12;31.11
46944;BME280;32678;43.852;25.952;2023-05-31T12:51:41;101157.09;;;27.17;31.13
46944;BME280;32678;43.852;25.952;2023-05-31T12:56:38;101151.00;;;27.42;30.98
46944;BME280;32678;43.852;25.952;2023-05-31T13:01:38;101144.63;;;27.15;30.65
46944;BME280;32678;43.852;25.952;2023-05-31T13:06:37;101131.00;;;27.27;30.81
46944;BME280;32678;43.852;25.952;2023-05-31T13:11:35;101134.03;;;27.04;31.37
46944;BME280;32678;43.852;25.952;2023-05-31T13:16:32;101128.13;;;27.28;29.03
46944;BME280;32678;43.852;25.952;2023-05-31T13:21:30;101125.84;;;27.33;30.00
46944;BME280;32678;43.852;25.952;2023-05-31T13:26:28;101117.94;;;27.32;30.21
46944;BME280;32678;43.852;25.952;2023-05-31T13:31:25;101117.41;;;27.55;28.87
46944;BME280;32678;43.852;25.952;2023-05-31T13:36:23;101115.09;;;27.61;29.27
46944;BME280;32678;43.852;25.952;2023-05-31T13:41:21;101110.78;;;27.50;28.24
46944;BME280;32678;43.852;25.952;2023-05-31T13:46:19;101109.94;;;27.67;28.47
46944;BME280;32678;43.852;25.952;2023-05-31T13:51:16;101109.19;;;27.92;28.69
46944;BME280;32678;43.852;25.952;2023-05-31T13:56:12;101111.88;;;27.47;28.92
46944;BME280;32678;43.852;25.952;2023-05-31T14:01:13;101109.47;;;27.54;28.33
46944;BME280;32678;43.852;25.952;2023-05-31T14:06:10;101110.50;;;27.71;28.64
46944;BME280;32678;43.852;25.952;2023-05-31T14:11:07;101099.09;;;27.59;28.70
46944;BME280;32678;43.852;25.952;2023-05-31T14:16:04;101096.97;;;27.26;29.83
46944;BME280;32678;43.852;25.952;2023-05-31T14:21:02;101103.22;;;27.53;29.80
46944;BME280;32678;43.852;25.952;2023-05-31T14:25:59;101098.22;;;27.58;29.35
46944;BME280;32678;43.852;25.952;2023-05-31T14:30:56;101094.59;;;27.50;29.30
46944;BME280;32678;43.852;25.952;2023-05-31T14:35:53;101090.31;;;27.92;29.61
46944;BME280;32678;43.852;25.952;2023-05-31T14:40:51;101095.97;;;28.17;29.98
46944;BME280;32678;43.852;25.952;2023-05-31T14:45:50;101091.56;;;28.16;29.58
46944;BME280;32678;43.852;25.952;2023-05-31T14:50:50;101082.31;;;27.83;29.87
46944;BME280;32678;43.852;25.952;2023-05-31T14:55:47;101086.25;;;27.88;30.27
46944;BME280;32678;43.852;25.952;2023-05-31T15:00:44;101083.94;;;27.76;30.13
46944;BME280;32678;43.852;25.952;2023-05-31T15:05:43;101085.53;;;27.86;30.39
46944;BME280;32678;43.852;25.952;2023-05-31T15:10:40;101089.38;;;27.66;29.74
46944;BME280;32678;43.852;25.952;2023-05-31T15:15:36;101093.22;;;27.64;30.37
46944;BME280;32678;43.852;25.952;2023-05-31T15:20:36;101100.25;;;27.74;29.83
46944;BME280;32678;43.852;25.952;2023-05-31T15:25:34;101072.59;;;27.72;29.23
46944;BME280;32678;43.852;25.952;2023-05-31T15:30:31;101105.72;;;27.65;28.76
46944;BME280;32678;43.852;25.952;2023-05-31T15:35:30;101103.22;;;27.53;29.34
46944;BME280;32678;43.852;25.952;2023-05-31T15:40:30;101105.72;;;27.65;29.54
46944;BME280;32678;43.852;25.952;2023-05-31T15:45:27;101107.63;;;27.72;28.96
46944;BME280;32678;43.852;25.952;2023-05-31T15:50:24;101106.03;;;27.79;28.82
46944;BME280;32678;43.852;25.952;2023-05-31T15:55:21;101103.19;;;27.98;28.13
46944;BME280;32678;43.852;25.952;2023-05-31T16:00:20;101115.66;;;27.99;28.00
46944;BME280;32678;43.852;25.952;2023-05-31T16:05:17;101119.94;;;28.10;27.63
46944;BME280;32678;43.852;25.952;2023-05-31T16:10:13;101118.69;;;28.14;27.87
46944;BME280;32678;43.852;25.952;2023-05-31T16:15:10;101123.38;;;28.12;27.44
46944;BME280;32678;43.852;25.952;2023-05-31T16:20:08;101125.94;;;28.14;27.09
46944;BME280;32678;43.852;25.952;2023-05-31T16:25:05;101130.34;;;28.15;27.82
46944;BME280;32678;43.852;25.952;2023-05-31T16:30:04;101133.69;;;28.17;27.82
46944;BME280;32678;43.852;25.952;2023-05-31T16:35:01;101133.22;;;28.21;27.53
46944;BME280;32678;43.852;25.952;2023-05-31T16:39:59;101134.09;;;28.22;27.48
46944;BME280;32678;43.852;25.952;2023-05-31T16:44:56;101136.47;;;28.25;27.77
46944;BME280;32678;43.852;25.952;2023-05-31T16:49:53;101126.16;;;28.20;27.78
46944;BME280;32678;43.852;25.952;2023-05-31T16:54:50;101126.31;;;28.19;27.97
46944;BME280;32678;43.852;25.952;2023-05-31T16:59:47;101130.00;;;28.18;27.99
46944;BME280;32678;43.852;25.952;2023-05-31T17:04:45;101132.72;;;28.18;28.16
46944;BME280;32678;43.852;25.952;2023-05-31T17:09:42;101130.72;;;28.20;28.82
46944;BME280;32678;43.852;25.952;2023-05-31T17:14:39;101125.63;;;28.17;28.88
46944;BME280;32678;43.852;25.952;2023-05-31T17:19:36;101127.63;;;28.15;29.04
46944;BME280;32678;43.852;25.952;2023-05-31T17:24:33;101121.22;;;28.16;29.08
46944;BME280;32678;43.852;25.952;2023-05-31T17:29:30;101133.19;;;28.13;29.41
46944;BME280;32678;43.852;25.952;2023-05-31T17:34:27;101139.94;;;28.17;30.35
46944;BME280;32678;43.852;25.952;2023-05-31T17:39:24;101145.47;;;28.16;34.92
46944;BME280;32678;43.852;25.952;2023-05-31T17:44:21;101149.28;;;27.95;36.23
46944;BME280;32678;43.852;25.952;2023-05-31T17:49:20;101156.03;;;27.64;33.19
46944;BME280;32678;43.852;25.952;2023-05-31T17:54:17;101148.16;;;27.80;33.81
46944;BME280;32678;43.852;25.952;2023-05-31T17:59:17;101150.13;;;27.78;31.69
46944;BME280;32678;43.852;25.952;2023-05-31T18:04:13;101151.66;;;27.81;31.56
46944;BME280;32678;43.852;25.952;2023-05-31T18:09:10;101155.53;;;27.78;31.69
46944;BME280;32678;43.852;25.952;2023-05-31T18:14:07;101160.97;;;27.69;31.74
46944;BME280;32678;43.852;25.952;2023-05-31T18:19:05;101162.34;;;27.45;32.02
46944;BME280;32678;43.852;25.952;2023-05-31T18:24:01;101169.84;;;27.51;32.47
46944;BME280;32678;43.852;25.952;2023-05-31T18:28:58;101180.34;;;27.45;32.83
46944;BME280;32678;43.852;25.952;2023-05-31T18:33:55;101181.03;;;27.47;34.99
46944;BME280;32678;43.852;25.952;2023-05-31T18:38:53;101184.88;;;27.44;36.35
46944;BME280;32678;43.852;25.952;2023-05-31T18:43:49;101173.84;;;27.38;40.39
46944;BME280;32678;43.852;25.952;2023-05-31T18:48:46;101185.00;;;27.15;41.91
46944;BME280;32678;43.852;25.952;2023-05-31T18:53:43;101185.31;;;27.03;42.70
46944;BME280;32678;43.852;25.952;2023-05-31T18:58:41;101192.00;;;26.89;42.10
46944;BME280;32678;43.852;25.952;2023-05-31T19:03:37;101192.75;;;26.72;44.42
46944;BME280;32678;43.852;25.952;2023-05-31T19:08:34;101193.31;;;26.66;40.94
46944;BME280;32678;43.852;25.952;2023-05-31T19:13:31;101197.97;;;26.64;41.03
46944;BME280;32678;43.852;25.952;2023-05-31T19:18:29;101204.19;;;26.64;41.15
46944;BME280;32678;43.852;25.952;2023-05-31T19:23:25;101208.00;;;26.81;41.22
46944;BME280;32678;43.852;25.952;2023-05-31T19:28:22;101191.75;;;26.54;41.29
46944;BME280;32678;43.852;25.952;2023-05-31T19:33:19;101214.28;;;26.43;41.62
46944;BME280;32678;43.852;25.952;2023-05-31T19:38:16;101210.44;;;26.55;42.48
46944;BME280;32678;43.852;25.952;2023-05-31T19:43:13;101208.59;;;26.46;42.60
46944;BME280;32678;43.852;25.952;2023-05-31T19:48:10;101209.88;;;26.33;42.22
46944;BME280;32678;43.852;25.952;2023-05-31T19:53:07;101213.25;;;26.54;43.65
46944;BME280;32678;43.852;25.952;2023-05-31T19:58:04;101219.34;;;26.46;45.42
46944;BME280;32678;43.852;25.952;2023-05-31T20:03:01;101198.78;;;26.07;47.39
46944;BME280;32678;43.852;25.952;2023-05-31T20:07:58;101211.88;;;25.41;44.32
46944;BME280;32678;43.852;25.952;2023-05-31T20:12:55;101204.50;;;25.43;44.08
46944;BME280;32678;43.852;25.952;2023-05-31T20:17:52;101208.50;;;25.49;44.41
46944;BME280;32678;43.852;25.952;2023-05-31T20:22:50;101212.50;;;25.94;46.06
46944;BME280;32678;43.852;25.952;2023-05-31T20:27:46;101211.75;;;25.82;44.97
46944;BME280;32678;43.852;25.952;2023-05-31T20:32:43;101199.31;;;25.51;44.68
46944;BME280;32678;43.852;25.952;2023-05-31T20:37:41;101195.34;;;25.85;45.20
46944;BME280;32678;43.852;25.952;2023-05-31T20:42:37;101215.63;;;25.99;45.74
46944;BME280;32678;43.852;25.952;2023-05-31T20:47:34;101210.91;;;25.82;43.56
46944;BME280;32678;43.852;25.952;2023-05-31T20:52:31;101208.31;;;25.71;41.55
46944;BME280;32678;43.852;25.952;2023-05-31T20:57:28;101206.09;;;25.45;43.36
46944;BME280;32678;43.852;25.952;2023-05-31T21:02:25;101210.03;;;25.51;47.03
46944;BME280;32678;43.852;25.952;2023-05-31T21:07:22;101207.97;;;25.24;51.72
46944;BME280;32678;43.852;25.952;2023-05-31T21:12:19;101205.00;;;24.97;52.02
46944;BME280;32678;43.852;25.952;2023-05-31T21:17:16;101203.84;;;25.20;50.36
46944;BME280;32678;43.852;25.952;2023-05-31T21:22:12;101213.09;;;25.58;49.80
46944;BME280;32678;43.852;25.952;2023-05-31T21:27:09;101215.25;;;25.73;49.66
46944;BME280;32678;43.852;25.952;2023-05-31T21:32:06;101221.13;;;26.07;47.16
46944;BME280;32678;43.852;25.952;2023-05-31T21:37:03;101231.56;;;25.91;47.83
46944;BME280;32678;43.852;25.952;2023-05-31T21:42:00;101217.97;;;25.83;48.62
46944;BME280;32678;43.852;25.952;2023-05-31T21:46:58;101220.94;;;25.50;47.94
46944;BME280;32678;43.852;25.952;2023-05-31T21:51:54;101222.84;;;25.38;47.00
46944;BME280;32678;43.852;25.952;2023-05-31T21:56:52;101223.75;;;24.44;49.75
46944;BME280;32678;43.852;25.952;2023-05-31T22:01:48;101219.84;;;24.16;50.99
46944;BME280;32678;43.852;25.952;2023-05-31T22:06:45;101214.09;;;24.10;49.93
46944;BME280;32678;43.852;25.952;2023-05-31T22:11:42;101209.09;;;24.28;46.99
46944;BME280;32678;43.852;25.952;2023-05-31T22:16:39;101211.69;;;24.18;45.67
46944;BME280;32678;43.852;25.952;2023-05-31T22:21:40;101206.25;;;23.75;46.46
46944;BME280;32678;43.852;25.952;2023-05-31T22:26:36;101205.03;;;23.90;47.82
46944;BME280;32678;43.852;25.952;2023-05-31T22:31:33;101203.91;;;24.04;48.02
46944;BME280;32678;43.852;25.952;2023-05-31T22:36:31;101206.75;;;24.34;46.89
46944;BME280;32678;43.852;25.952;2023-05-31T22:41:27;101209.41;;;24.34;44.37
46944;BME280;32678;43.852;25.952;2023-05-31T22:46:24;101204.97;;;24.55;46.50
46944;BME280;32678;43.852;25.952;2023-05-31T22:51:21;101209.28;;;24.68;47.39
46944;BME280;32678;43.852;25.952;2023-05-31T22:56:19;101204.75;;;24.68;48.05
46944;BME280;32678;43.852;25.952;2023-05-31T23:01:16;101204.59;;;25.01;47.83
46944;BME280;32678;43.852;25.952;2023-05-31T23:06:13;101205.00;;;25.27;47.32
46944;BME280;32678;43.852;25.952;2023-05-31T23:11:10;101200.09;;;25.32;47.52
46944;BME280;32678;43.852;25.952;2023-05-31T23:16:11;101207.47;;;25.40;47.42
46944;BME280;32678;43.852;25.952;2023-05-31T23:21:08;101200.28;;;24.89;48.60
46944;BME280;32678;43.852;25.952;2023-05-31T23:26:05;101201.50;;;24.85;49.00
46944;BME280;32678;43.852;25.952;2023-05-31T23:31:01;101198.03;;;24.53;45.02
46944;BME280;32678;43.852;25.952;2023-05-31T23:35:59;101193.53;;;24.22;44.58
46944;BME280;32678;43.852;25.952;2023-05-31T23:40:56;101189.88;;;24.11;45.21
46944;BME280;32678;43.852;25.952;2023-05-31T23:45:52;101195.81;;;23.83;45.35
46944;BME280;32678;43.852;25.952;2023-05-31T23:50:49;101191.31;;;23.61;45.66
46944;BME280;32678;43.852;25.952;2023-05-31T23:55:46;101193.63;;;23.44;46.32
